createdAt,value
2023-02-18T00:02:45.299Z,7.30
2023-02-18T00:07:47.729Z,7.30
2023-02-18T00:12:51.178Z,7.30
2023-02-18T00:17:53.572Z,7.30
2023-02-18T00:22:56.090Z,7.40
2023-02-18T00:27:58.431Z,7.30
2023-02-18T00:33:00.828Z,7.30
2023-02-18T00:38:03.226Z,7.30
2023-02-18T00:43:06.186Z,7.30
2023-02-18T00:48:08.536Z,7.30
2023-02-18T00:53:11.228Z,7.30
2023-02-18T00:58:14.569Z,7.20
2023-02-18T01:03:17.459Z,7.10
2023-02-18T01:08:21.117Z,7.00
2023-02-18T01:13:26.304Z,7.00
2023-02-18T01:18:28.843Z,7.00
2023-02-18T01:23:31.651Z,6.80
2023-02-18T01:28:34.364Z,6.80
2023-02-18T01:33:37.169Z,6.80
2023-02-18T01:38:39.886Z,6.70
2023-02-18T01:43:42.592Z,6.70
2023-02-18T01:48:53.764Z,6.70
2023-02-18T01:54:01.952Z,6.60
2023-02-18T01:59:11.744Z,6.50
2023-02-18T02:04:14.430Z,6.40
2023-02-18T02:09:19.598Z,6.40
2023-02-18T02:14:36.576Z,6.40
2023-02-18T02:19:51.210Z,6.30
2023-02-18T02:24:59.217Z,6.40
2023-02-18T02:30:33.559Z,6.40
2023-02-18T02:36:00.963Z,6.40
2023-02-18T02:41:17.329Z,6.40
2023-02-18T02:46:44.163Z,6.40
2023-02-18T02:51:56.989Z,6.30
2023-02-18T02:57:09.601Z,6.20
2023-02-18T03:02:49.884Z,6.20
2023-02-18T03:08:04.835Z,6.20
2023-02-18T03:13:33.939Z,6.10
2023-02-18T03:18:51.768Z,6.20
2023-02-18T03:24:00.379Z,6.20
2023-02-18T03:29:07.474Z,6.20
2023-02-18T03:34:20.131Z,6.20
2023-02-18T03:39:25.604Z,6.20
2023-02-18T03:44:28.050Z,6.10
2023-02-18T03:49:30.836Z,6.10
2023-02-18T03:54:35.026Z,6.10
2023-02-18T03:59:37.546Z,6.40
2023-02-18T04:04:40.078Z,6.20
2023-02-18T04:09:42.529Z,6.20
2023-02-18T04:14:45.068Z,6.10
2023-02-18T04:19:47.486Z,6.20
2023-02-18T04:24:49.846Z,6.20
2023-02-18T04:29:52.730Z,6.10
2023-02-18T04:34:55.110Z,6.10
2023-02-18T04:39:57.497Z,6.10
2023-02-18T04:44:59.900Z,6.10
2023-02-18T04:50:02.696Z,6.00
2023-02-18T04:55:05.436Z,6.00
2023-02-18T05:00:09.632Z,5.90
2023-02-18T05:05:12.746Z,5.90
2023-02-18T05:10:18.362Z,5.90
2023-02-18T05:15:20.803Z,5.80
2023-02-18T05:20:23.182Z,5.90
2023-02-18T05:25:25.702Z,5.80
2023-02-18T05:30:28.155Z,5.70
2023-02-18T05:35:30.585Z,5.70
2023-02-18T05:40:32.947Z,5.60
2023-02-18T05:45:35.686Z,5.50
2023-02-18T05:50:38.352Z,5.40
2023-02-18T05:55:40.809Z,5.30
2023-02-18T06:00:43.320Z,5.20
2023-02-18T06:05:45.710Z,5.20
2023-02-18T06:10:48.182Z,5.20
2023-02-18T06:15:51.962Z,5.20
2023-02-18T06:20:54.554Z,5.30
2023-02-18T06:25:56.932Z,5.40
2023-02-18T06:30:59.458Z,5.50
2023-02-18T06:36:09.644Z,5.40
2023-02-18T06:41:14.009Z,5.40
2023-02-18T06:46:16.441Z,5.50
2023-02-18T06:51:19.893Z,5.60
2023-02-18T06:56:22.282Z,5.60
2023-02-18T07:01:24.708Z,5.60
2023-02-18T07:06:27.030Z,5.70
2023-02-18T07:11:29.428Z,5.70
2023-02-18T07:16:31.861Z,5.80
2023-02-18T07:21:34.303Z,5.80
2023-02-18T07:26:36.843Z,5.90
2023-02-18T07:31:39.385Z,6.00
2023-02-18T07:36:42.543Z,6.10
2023-02-18T07:41:44.912Z,6.20
2023-02-18T07:46:51.010Z,6.20
2023-02-18T07:51:54.078Z,6.30
2023-02-18T07:56:56.474Z,6.30
2023-02-18T08:01:58.995Z,6.40
2023-02-18T08:07:01.517Z,6.60
2023-02-18T08:12:04.107Z,6.70
2023-02-18T08:17:06.525Z,6.80
2023-02-18T08:22:10.034Z,6.90
2023-02-18T08:27:13.475Z,7.00
2023-02-18T08:32:15.974Z,7.20
2023-02-18T08:37:18.383Z,7.30
2023-02-18T08:42:20.863Z,7.50
2023-02-18T08:48:13.667Z,7.40
2023-02-18T08:52:46.045Z,7.60
2023-02-18T08:57:48.937Z,8.00
2023-02-18T09:02:51.429Z,7.90
2023-02-18T09:07:53.849Z,8.00
2023-02-18T09:12:56.267Z,8.30
2023-02-18T09:17:59.837Z,8.70
2023-02-18T09:23:03.767Z,8.70
2023-02-18T09:28:06.224Z,8.60
2023-02-18T09:33:08.756Z,8.80
2023-02-18T09:38:13.224Z,9.30
2023-02-18T09:43:33.457Z,9.30
2023-02-18T09:48:37.510Z,9.20
2023-02-18T09:53:42.107Z,9.00
2023-02-18T09:58:46.008Z,8.90
2023-02-18T10:03:48.842Z,9.30
2023-02-18T10:08:54.091Z,9.20
2023-02-18T10:13:57.611Z,9.30
2023-02-18T10:19:04.072Z,9.10
2023-02-18T10:24:29.175Z,9.10
2023-02-18T10:29:32.397Z,9.30
2023-02-18T10:34:45.945Z,9.30
2023-02-18T10:40:09.153Z,9.20
2023-02-18T10:45:17.546Z,9.50
2023-02-18T10:50:34.115Z,9.60
2023-02-18T10:55:45.426Z,9.70
2023-02-18T11:00:47.832Z,10.00
2023-02-18T11:05:56.270Z,9.50
2023-02-18T11:10:59.209Z,9.60
2023-02-18T11:16:05.281Z,9.40
2023-02-18T11:21:21.582Z,9.40
2023-02-18T11:26:32.249Z,9.20
2023-02-18T11:31:45.021Z,9.10
2023-02-18T11:36:49.327Z,9.00
2023-02-18T11:41:59.408Z,8.90
2023-02-18T11:47:14.003Z,8.60
2023-02-18T11:52:25.756Z,8.40
2023-02-18T11:57:29.088Z,8.30
2023-02-18T12:02:38.430Z,8.10
2023-02-18T12:07:55.489Z,7.80
2023-02-18T12:13:08.012Z,7.60
2023-02-18T12:18:30.190Z,7.40
2023-02-18T12:23:43.998Z,7.00
2023-02-18T12:28:52.701Z,7.10
2023-02-18T12:34:30.317Z,6.80
2023-02-18T12:39:55.427Z,6.70
2023-02-18T12:45:00.500Z,6.60
2023-02-18T12:50:02.846Z,6.50
2023-02-18T12:55:50.913Z,6.40
2023-02-18T13:01:05.799Z,6.80
2023-02-18T13:06:08.504Z,6.40
2023-02-18T13:11:54.988Z,6.60
2023-02-18T13:17:01.039Z,6.50
2023-02-18T13:22:06.204Z,6.50
2023-02-18T13:27:27.404Z,6.50
2023-02-18T13:32:55.396Z,6.50
2023-02-18T13:38:37.160Z,6.40
2023-02-18T13:43:39.967Z,6.50
2023-02-18T13:48:49.316Z,6.40
2023-02-18T13:54:05.322Z,6.40
2023-02-18T13:59:34.385Z,6.50
2023-02-18T14:04:40.241Z,6.50
2023-02-18T14:09:43.687Z,6.50
2023-02-18T14:14:46.354Z,6.40
2023-02-18T14:20:00.929Z,6.40
2023-02-18T14:25:09.493Z,6.40
2023-02-18T14:30:31.319Z,6.40
2023-02-18T14:35:52.239Z,6.30
2023-02-18T14:41:13.327Z,6.30
2023-02-18T14:46:20.737Z,6.20
2023-02-18T14:51:27.947Z,6.10
2023-02-18T14:56:31.075Z,6.10
2023-02-18T15:01:36.889Z,6.00
2023-02-18T15:06:40.199Z,6.00
2023-02-18T15:11:50.632Z,6.10
2023-02-18T15:16:53.903Z,6.00
2023-02-18T15:21:57.669Z,6.00
2023-02-18T15:27:04.123Z,5.80
2023-02-18T15:32:19.995Z,5.80
2023-02-18T15:37:22.587Z,5.70
2023-02-18T15:42:24.957Z,5.70
2023-02-18T15:47:27.554Z,5.60
2023-02-18T15:52:33.027Z,5.50
2023-02-18T15:57:36.996Z,5.20
2023-02-18T16:02:51.968Z,5.20
2023-02-18T16:08:02.776Z,5.20
2023-02-18T16:13:06.143Z,5.20
2023-02-18T16:18:24.020Z,5.10
2023-02-18T16:23:34.751Z,5.10
2023-02-18T16:28:37.382Z,5.10
2023-02-18T16:33:39.786Z,5.10
2023-02-18T16:38:43.579Z,5.10
2023-02-18T16:43:50.418Z,4.90
2023-02-18T16:48:55.783Z,4.80
2023-02-18T16:53:58.396Z,4.90
2023-02-18T16:59:00.817Z,4.60
2023-02-18T17:04:05.727Z,4.60
2023-02-18T17:09:22.159Z,4.70
2023-02-18T17:14:24.685Z,4.50
2023-02-18T17:19:27.102Z,4.60
2023-02-18T17:24:29.512Z,4.50
2023-02-18T17:29:33.292Z,4.60
2023-02-18T17:34:37.734Z,4.60
2023-02-18T17:39:40.296Z,4.50
2023-02-18T17:44:42.695Z,4.50
2023-02-18T17:49:45.180Z,4.50
2023-02-18T17:54:47.529Z,4.50
2023-02-18T17:59:49.900Z,4.50
2023-02-18T18:04:52.252Z,4.50
2023-02-18T18:09:55.010Z,4.50
2023-02-18T18:14:57.435Z,4.50
2023-02-18T18:19:59.804Z,4.50
2023-02-18T18:25:04.704Z,4.50
2023-02-18T18:30:07.767Z,4.40
2023-02-18T18:35:34.306Z,4.40
2023-02-18T18:40:36.822Z,4.30
2023-02-18T18:45:39.308Z,4.20
2023-02-18T18:50:42.466Z,4.10
2023-02-18T18:55:45.667Z,4.10
2023-02-18T19:00:54.544Z,4.10
2023-02-18T19:05:58.296Z,4.10
2023-02-18T19:11:02.563Z,4.10
2023-02-18T19:16:07.908Z,4.20
2023-02-18T19:21:12.388Z,4.20
2023-02-18T19:26:16.952Z,4.20
2023-02-18T19:31:24.346Z,4.20
2023-02-18T19:36:26.928Z,4.30
2023-02-18T19:41:29.422Z,4.30
2023-02-18T19:46:32.550Z,4.30
2023-02-18T19:51:34.950Z,4.30
2023-02-18T19:56:37.355Z,4.40
2023-02-18T20:01:39.803Z,4.30
2023-02-18T20:06:42.350Z,4.20
2023-02-18T20:11:45.245Z,4.20
2023-02-18T20:16:47.624Z,4.20
2023-02-18T20:21:50.739Z,4.10
2023-02-18T20:26:53.154Z,4.10
2023-02-18T20:31:56.378Z,4.00
2023-02-18T20:36:59.119Z,4.00
2023-02-18T20:42:11.202Z,3.90
2023-02-18T20:47:18.218Z,4.00
2023-02-18T20:52:20.682Z,3.90
2023-02-18T20:57:23.359Z,3.90
2023-02-18T21:02:25.881Z,3.70
2023-02-18T21:07:28.379Z,3.60
2023-02-18T21:12:31.052Z,3.60
2023-02-18T21:17:33.497Z,3.40
2023-02-18T21:22:36.418Z,3.30
2023-02-18T21:27:38.846Z,3.20
2023-02-18T21:32:41.288Z,3.10
2023-02-18T21:37:43.823Z,3.00
2023-02-18T21:42:46.252Z,3.00
2023-02-18T21:47:48.900Z,3.10
2023-02-18T21:52:51.325Z,3.20
2023-02-18T21:57:53.714Z,3.60
2023-02-18T22:02:56.288Z,3.40
2023-02-18T22:07:58.714Z,3.40
2023-02-18T22:13:01.367Z,3.50
2023-02-18T22:18:03.896Z,3.50
2023-02-18T22:23:06.498Z,3.50
2023-02-18T22:28:08.964Z,3.60
2023-02-18T22:33:11.377Z,3.60
2023-02-18T22:38:13.732Z,3.60
2023-02-18T22:43:16.252Z,3.60
2023-02-18T22:48:20.048Z,3.70
2023-02-18T22:53:22.549Z,3.70
2023-02-18T22:58:25.034Z,3.70
2023-02-18T23:03:28.632Z,3.70
2023-02-18T23:08:32.474Z,3.80
2023-02-18T23:13:35.146Z,3.80
2023-02-18T23:18:37.609Z,3.80
2023-02-18T23:23:39.985Z,3.80
2023-02-18T23:28:48.262Z,3.80
2023-02-18T23:33:54.671Z,3.80
2023-02-18T23:38:59.504Z,3.80
2023-02-18T23:44:11.516Z,3.90
2023-02-18T23:49:16.109Z,3.90
2023-02-18T23:54:18.852Z,3.90
2023-02-18T23:59:21.472Z,3.90
